createdAt,value
2019-02-21T00:01:32.331Z,99.90
2019-02-21T00:04:01.183Z,99.90
2019-02-21T00:06:29.982Z,99.90
2019-02-21T00:08:58.765Z,99.90
2019-02-21T00:11:28.262Z,99.90
2019-02-21T00:13:57.127Z,99.90
2019-02-21T00:16:26.245Z,99.90
2019-02-21T00:18:55.017Z,99.90
2019-02-21T00:21:23.789Z,99.90
2019-02-21T00:23:52.931Z,99.90
2019-02-21T00:26:21.726Z,99.90
2019-02-21T00:28:50.522Z,99.90
2019-02-21T00:31:19.676Z,99.90
2019-02-21T00:33:48.521Z,99.90
2019-02-21T00:36:17.566Z,99.90
2019-02-21T00:38:46.380Z,99.90
2019-02-21T00:41:15.506Z,99.90
2019-02-21T00:43:44.277Z,99.90
2019-02-21T00:46:13.052Z,99.90
2019-02-21T00:48:41.836Z,99.90
2019-02-21T00:51:10.593Z,99.90
2019-02-21T00:53:39.391Z,99.90
2019-02-21T00:56:08.481Z,99.90
2019-02-21T00:58:37.244Z,99.90
2019-02-21T01:01:06.085Z,99.90
2019-02-21T01:03:34.871Z,99.90
2019-02-21T01:06:03.717Z,99.90
2019-02-21T01:08:32.862Z,99.90
2019-02-21T01:11:01.698Z,99.90
2019-02-21T01:13:30.554Z,99.90
2019-02-21T01:15:59.608Z,99.90
2019-02-21T01:18:28.377Z,99.90
2019-02-21T01:20:57.132Z,99.90
2019-02-21T01:23:25.909Z,99.90
2019-02-21T01:25:54.674Z,99.90
2019-02-21T01:28:23.449Z,99.90
2019-02-21T01:30:56.951Z,99.90
2019-02-21T01:33:22.706Z,99.90
2019-02-21T01:35:51.543Z,99.90
2019-02-21T01:38:20.312Z,99.90
2019-02-21T01:40:49.091Z,99.90
2019-02-21T01:43:17.943Z,99.90
2019-02-21T01:45:46.719Z,99.90
2019-02-21T01:48:15.489Z,99.90
2019-02-21T01:50:44.297Z,99.90
2019-02-21T01:53:13.071Z,99.90
2019-02-21T01:55:41.839Z,99.90
2019-02-21T01:58:10.986Z,99.90
2019-02-21T02:00:39.997Z,99.90
2019-02-21T02:03:08.849Z,99.90
2019-02-21T02:05:37.899Z,99.90
2019-02-21T02:08:07.017Z,99.90
2019-02-21T02:10:35.777Z,99.90
2019-02-21T02:13:04.699Z,99.90
2019-02-21T02:15:33.565Z,99.90
2019-02-21T02:18:02.344Z,99.90
2019-02-21T02:20:31.182Z,99.90
2019-02-21T02:22:59.952Z,99.90
2019-02-21T02:25:28.723Z,99.90
2019-02-21T02:27:57.566Z,99.90
2019-02-21T02:30:26.342Z,99.90
2019-02-21T02:32:55.124Z,99.90
2019-02-21T02:35:23.990Z,99.90
2019-02-21T02:37:52.769Z,99.90
2019-02-21T02:40:21.527Z,99.90
2019-02-21T02:42:50.368Z,99.90
2019-02-21T02:45:19.128Z,99.90
2019-02-21T02:47:47.905Z,99.90
2019-02-21T02:50:16.688Z,99.90
2019-02-21T02:52:45.450Z,99.90
2019-02-21T02:55:14.558Z,99.90
2019-02-21T02:57:43.314Z,99.90
2019-02-21T03:00:13.610Z,99.90
2019-02-21T03:02:42.457Z,99.90
2019-02-21T03:05:11.382Z,99.90
2019-02-21T03:07:40.143Z,99.90
2019-02-21T03:10:10.740Z,99.90
2019-02-21T03:12:39.502Z,99.90
2019-02-21T03:15:08.505Z,99.90
2019-02-21T03:17:37.342Z,99.90
2019-02-21T03:20:06.800Z,99.90
2019-02-21T03:22:35.738Z,99.90
2019-02-21T03:25:05.181Z,99.90
2019-02-21T03:27:33.961Z,99.90
2019-02-21T03:30:02.713Z,99.90
2019-02-21T03:32:31.479Z,99.90
2019-02-21T03:35:00.412Z,99.90
2019-02-21T03:37:29.501Z,99.90
2019-02-21T03:39:58.302Z,99.90
2019-02-21T03:42:27.150Z,99.90
2019-02-21T03:44:55.917Z,99.90
2019-02-21T03:47:24.674Z,99.90
2019-02-21T03:49:53.437Z,99.90
2019-02-21T03:52:22.205Z,99.90
2019-02-21T03:54:51.058Z,99.90
2019-02-21T03:57:19.940Z,99.90
2019-02-21T03:59:48.898Z,99.90
2019-02-21T04:02:17.762Z,99.90
2019-02-21T04:04:46.694Z,99.90
2019-02-21T04:07:15.522Z,99.90
2019-02-21T04:09:44.327Z,99.90
2019-02-21T04:12:13.070Z,99.90
2019-02-21T04:14:41.973Z,99.90
2019-02-21T04:17:10.777Z,99.90
2019-02-21T04:19:39.618Z,99.90
2019-02-21T04:22:08.378Z,99.90
2019-02-21T04:24:37.151Z,99.90
2019-02-21T04:27:06.198Z,99.90
2019-02-21T04:29:35.338Z,99.90
2019-02-21T04:32:04.093Z,99.90
2019-02-21T04:34:32.875Z,99.90
2019-02-21T04:37:01.626Z,99.90
2019-02-21T04:39:30.406Z,99.90
2019-02-21T04:41:59.534Z,99.90
2019-02-21T04:44:28.649Z,99.90
2019-02-21T04:46:57.555Z,99.90
2019-02-21T04:49:26.362Z,99.90
2019-02-21T04:51:55.118Z,99.90
2019-02-21T04:54:24.168Z,99.90
2019-02-21T04:56:53.006Z,99.90
2019-02-21T04:59:21.781Z,99.90
2019-02-21T05:01:50.571Z,99.90
2019-02-21T05:04:19.359Z,99.90
2019-02-21T05:06:48.138Z,99.90
2019-02-21T05:09:16.883Z,99.90
2019-02-21T05:11:45.784Z,99.90
2019-02-21T05:14:14.662Z,99.90
2019-02-21T05:16:44.739Z,99.90
2019-02-21T05:19:14.100Z,99.90
2019-02-21T05:21:43.035Z,99.90
2019-02-21T05:24:11.821Z,99.90
2019-02-21T05:26:44.832Z,99.90
2019-02-21T05:29:14.107Z,99.90
2019-02-21T05:32:14.079Z,99.90
2019-02-21T05:34:57.982Z,99.90
2019-02-21T05:37:42.145Z,99.90
2019-02-21T05:40:41.959Z,99.90
2019-02-21T05:43:20.714Z,99.90
2019-02-21T05:46:00.045Z,99.90
2019-02-21T05:48:34.266Z,99.90
2019-02-21T05:51:25.031Z,99.90
2019-02-21T05:54:05.520Z,99.90
2019-02-21T05:56:41.092Z,99.90
2019-02-21T05:59:27.353Z,99.90
2019-02-21T06:02:15.206Z,99.90
2019-02-21T06:05:03.053Z,99.90
2019-02-21T06:07:39.818Z,99.90
2019-02-21T06:10:26.611Z,99.90
2019-02-21T06:13:10.873Z,99.90
2019-02-21T06:15:57.382Z,99.90
2019-02-21T06:18:45.544Z,99.90
2019-02-21T06:21:27.801Z,99.90
2019-02-21T06:24:03.685Z,99.90
2019-02-21T06:26:43.526Z,99.90
2019-02-21T06:32:19.315Z,99.90
2019-02-21T06:34:48.172Z,99.90
2019-02-21T06:37:17.338Z,99.90
2019-02-21T06:39:46.105Z,99.90
2019-02-21T06:42:14.890Z,99.90
2019-02-21T06:44:43.666Z,99.90
2019-02-21T06:47:12.441Z,99.90
2019-02-21T06:49:41.213Z,99.90
2019-02-21T06:52:09.999Z,99.90
2019-02-21T06:54:38.836Z,99.90
2019-02-21T06:57:07.613Z,99.90
2019-02-21T06:59:43.307Z,99.90
2019-02-21T07:02:08.187Z,99.90
2019-02-21T07:04:36.951Z,99.90
2019-02-21T07:07:06.172Z,99.90
2019-02-21T07:09:34.930Z,99.90
2019-02-21T07:12:03.836Z,99.90
2019-02-21T07:14:34.491Z,99.90
2019-02-21T07:17:03.397Z,99.90
2019-02-21T07:19:32.565Z,99.90
2019-02-21T07:22:01.404Z,99.90
2019-02-21T07:24:30.466Z,99.90
2019-02-21T07:26:59.238Z,99.90
2019-02-21T07:29:28.048Z,99.90
2019-02-21T07:31:56.822Z,99.90
2019-02-21T07:34:25.629Z,99.90
2019-02-21T07:36:54.401Z,99.90
2019-02-21T07:39:23.206Z,99.90
2019-02-21T07:41:51.993Z,99.90
2019-02-21T07:44:21.257Z,99.90
2019-02-21T07:46:50.045Z,99.90
2019-02-21T07:49:18.909Z,99.90
2019-02-21T07:51:47.714Z,99.90
2019-02-21T07:54:16.492Z,99.90
2019-02-21T07:56:45.265Z,99.90
2019-02-21T07:59:14.069Z,99.90
2019-02-21T08:01:42.917Z,99.90
2019-02-21T08:04:11.844Z,99.90
2019-02-21T08:06:40.650Z,99.90
2019-02-21T08:09:09.510Z,99.90
2019-02-21T08:11:38.430Z,99.90
2019-02-21T08:14:07.294Z,99.90
2019-02-21T08:16:36.407Z,99.90
2019-02-21T08:19:05.341Z,99.90
2019-02-21T08:21:34.480Z,99.90
2019-02-21T08:24:03.352Z,99.90
2019-02-21T08:26:32.138Z,99.90
2019-02-21T08:29:00.926Z,99.90
2019-02-21T08:31:29.781Z,99.90
2019-02-21T08:34:04.302Z,99.90
2019-02-21T08:36:33.171Z,99.90
2019-02-21T08:39:03.894Z,99.90
2019-02-21T08:41:32.699Z,99.90
2019-02-21T08:44:01.473Z,99.90
2019-02-21T08:46:30.240Z,99.90
2019-02-21T08:48:59.089Z,99.90
2019-02-21T08:51:27.863Z,99.90
2019-02-21T08:53:56.645Z,99.90
2019-02-21T08:56:25.489Z,99.90
2019-02-21T08:58:54.613Z,99.90
2019-02-21T09:01:23.572Z,99.90
2019-02-21T09:03:52.621Z,99.90
2019-02-21T09:06:21.741Z,99.90
2019-02-21T09:08:50.624Z,99.90
2019-02-21T09:11:19.852Z,99.90
2019-02-21T09:13:49.210Z,99.90
2019-02-21T09:16:18.070Z,99.90
2019-02-21T09:18:46.990Z,99.90
2019-02-21T09:21:15.777Z,99.90
2019-02-21T09:23:44.822Z,99.90
2019-02-21T09:26:13.716Z,99.90
2019-02-21T09:28:42.508Z,97.90
2019-02-21T09:31:11.301Z,93.70
2019-02-21T09:33:40.154Z,88.30
2019-02-21T09:36:08.970Z,85.80
2019-02-21T09:38:37.825Z,82.30
2019-02-21T09:41:06.765Z,81.00
2019-02-21T09:43:35.629Z,81.00
2019-02-21T09:46:04.499Z,81.60
2019-02-21T09:48:33.276Z,79.30
2019-02-21T09:51:02.086Z,78.70
2019-02-21T09:53:30.942Z,73.70
2019-02-21T09:55:59.739Z,74.70
2019-02-21T09:58:28.760Z,74.30
2019-02-21T10:00:57.538Z,75.70
2019-02-21T10:03:26.394Z,76.20
2019-02-21T10:05:55.194Z,78.30
2019-02-21T10:08:24.047Z,79.30
2019-02-21T10:10:52.935Z,79.50
2019-02-21T10:13:21.969Z,80.40
2019-02-21T10:15:50.986Z,79.70
2019-02-21T10:18:19.762Z,80.00
2019-02-21T10:20:48.577Z,81.50
2019-02-21T10:23:17.346Z,82.40
2019-02-21T10:25:46.479Z,83.40
2019-02-21T10:28:15.318Z,84.70
2019-02-21T10:30:44.161Z,85.20
2019-02-21T10:33:13.438Z,85.60
2019-02-21T10:35:42.449Z,85.70
2019-02-21T10:38:11.221Z,86.00
2019-02-21T10:40:39.997Z,85.30
2019-02-21T10:43:08.785Z,86.60
2019-02-21T10:45:47.327Z,86.50
2019-02-21T10:48:08.061Z,84.40
2019-02-21T10:50:36.834Z,83.00
2019-02-21T10:53:05.722Z,80.50
2019-02-21T10:55:34.514Z,78.80
2019-02-21T10:58:03.432Z,77.90
2019-02-21T11:00:32.440Z,78.00
2019-02-21T11:03:01.323Z,76.30
2019-02-21T11:05:30.278Z,75.30
2019-02-21T11:07:59.140Z,71.90
2019-02-21T11:10:28.322Z,67.70
2019-02-21T11:12:57.201Z,66.20
2019-02-21T11:15:26.164Z,64.30
2019-02-21T11:17:55.468Z,61.70
2019-02-21T11:20:24.401Z,60.80
2019-02-21T11:22:53.331Z,61.70
2019-02-21T11:25:22.497Z,63.20
2019-02-21T11:27:51.353Z,64.00
2019-02-21T11:30:20.280Z,65.70
2019-02-21T11:32:49.691Z,68.20
2019-02-21T11:35:18.525Z,68.50
2019-02-21T11:37:47.822Z,71.60
2019-02-21T11:40:17.186Z,73.60
2019-02-21T11:42:46.428Z,70.50
2019-02-21T11:45:15.856Z,71.30
2019-02-21T11:47:44.701Z,69.20
2019-02-21T11:50:15.007Z,69.40
2019-02-21T11:52:44.279Z,70.20
2019-02-21T11:55:15.654Z,71.30
2019-02-21T11:57:44.842Z,71.30
2019-02-21T12:00:22.010Z,72.10
2019-02-21T12:02:50.885Z,69.80
2019-02-21T12:05:30.439Z,69.70
2019-02-21T12:07:50.317Z,70.40
2019-02-21T12:10:19.161Z,72.10
2019-02-21T12:12:48.122Z,72.50
2019-02-21T12:15:17.090Z,72.00
2019-02-21T12:17:46.034Z,72.10
2019-02-21T12:20:15.032Z,67.30
2019-02-21T12:22:43.895Z,67.20
2019-02-21T12:25:14.109Z,63.30
2019-02-21T12:27:42.898Z,64.30
2019-02-21T12:30:33.353Z,63.30
2019-02-21T12:33:01.481Z,60.30
2019-02-21T12:35:30.558Z,60.60
2019-02-21T12:37:59.644Z,61.20
2019-02-21T12:40:29.062Z,61.90
2019-02-21T12:42:58.131Z,62.80
2019-02-21T12:45:27.072Z,61.20
2019-02-21T12:47:57.353Z,59.80
2019-02-21T12:50:26.141Z,62.20
2019-02-21T12:52:54.923Z,60.10
2019-02-21T12:55:29.294Z,59.40
2019-02-21T12:57:54.227Z,58.50
2019-02-21T13:00:23.151Z,59.40
2019-02-21T13:02:52.025Z,59.10
2019-02-21T13:05:20.850Z,56.50
2019-02-21T13:07:49.670Z,58.70
2019-02-21T13:10:19.127Z,59.50
2019-02-21T13:12:48.008Z,59.70
2019-02-21T13:15:16.874Z,57.80
2019-02-21T13:17:45.748Z,60.10
2019-02-21T13:20:14.800Z,59.70
2019-02-21T13:22:44.017Z,59.30
2019-02-21T13:25:13.097Z,58.80
2019-02-21T13:27:41.935Z,60.20
2019-02-21T13:30:15.061Z,61.00
2019-02-21T13:32:43.903Z,63.10
2019-02-21T13:35:12.845Z,64.90
2019-02-21T13:37:41.827Z,63.80
2019-02-21T13:40:12.151Z,65.90
2019-02-21T13:42:40.912Z,65.60
2019-02-21T13:45:10.652Z,65.80
2019-02-21T13:47:39.462Z,66.20
2019-02-21T13:50:14.179Z,65.40
2019-02-21T13:52:42.959Z,65.50
2019-02-21T13:55:11.966Z,66.00
2019-02-21T13:57:40.736Z,66.10
2019-02-21T14:00:12.206Z,66.20
2019-02-21T14:02:41.037Z,66.00
2019-02-21T14:05:10.270Z,64.70
2019-02-21T14:07:39.321Z,64.40
2019-02-21T14:10:08.983Z,65.20
2019-02-21T14:12:37.765Z,67.50
2019-02-21T14:15:08.207Z,68.00
2019-02-21T14:17:37.049Z,69.50
2019-02-21T14:20:06.389Z,69.90
2019-02-21T14:22:35.614Z,70.50
2019-02-21T14:25:04.557Z,70.30
2019-02-21T14:27:33.317Z,70.90
2019-02-21T14:30:02.442Z,70.10
2019-02-21T14:32:31.210Z,71.10
2019-02-21T14:34:59.989Z,71.00
2019-02-21T14:37:28.751Z,71.40
2019-02-21T14:39:57.567Z,71.90
2019-02-21T14:42:26.341Z,72.00
2019-02-21T14:44:55.122Z,72.10
2019-02-21T14:47:23.881Z,71.90
2019-02-21T14:49:52.652Z,72.20
2019-02-21T14:52:21.417Z,71.80
2019-02-21T14:54:50.199Z,72.20
2019-02-21T14:57:19.055Z,72.70
2019-02-21T14:59:47.847Z,73.10
2019-02-21T15:02:16.614Z,73.20
2019-02-21T15:04:45.384Z,73.50
2019-02-21T15:07:14.158Z,73.70
2019-02-21T15:09:44.969Z,74.20
2019-02-21T15:12:13.514Z,74.60
2019-02-21T15:14:42.652Z,75.00
2019-02-21T15:17:11.413Z,75.10
2019-02-21T15:19:40.193Z,75.20
2019-02-21T15:22:09.306Z,75.00
2019-02-21T15:24:38.095Z,75.70
2019-02-21T15:27:08.806Z,75.90
2019-02-21T15:29:40.591Z,75.70
2019-02-21T15:32:11.070Z,76.20
2019-02-21T15:34:38.460Z,76.70
2019-02-21T15:37:07.237Z,76.80
2019-02-21T15:39:36.100Z,77.00
2019-02-21T15:42:04.889Z,77.70
2019-02-21T15:44:33.669Z,78.10
2019-02-21T15:47:02.453Z,78.50
2019-02-21T15:49:31.467Z,79.10
2019-02-21T15:52:00.542Z,79.80
2019-02-21T15:54:29.308Z,79.80
2019-02-21T15:56:58.093Z,80.80
2019-02-21T15:59:27.167Z,80.80
2019-02-21T16:01:55.950Z,81.70
2019-02-21T16:04:24.718Z,83.00
2019-02-21T16:06:53.841Z,82.10
2019-02-21T16:09:25.145Z,83.40
2019-02-21T16:11:53.149Z,83.80
2019-02-21T16:14:22.351Z,85.20
2019-02-21T16:16:51.220Z,85.50
2019-02-21T16:19:20.084Z,85.90
2019-02-21T16:21:48.845Z,85.50
2019-02-21T16:24:17.601Z,86.10
2019-02-21T16:26:46.394Z,87.30
2019-02-21T16:29:15.162Z,87.60
2019-02-21T16:31:44.289Z,88.50
2019-02-21T16:34:13.394Z,87.90
2019-02-21T16:36:42.613Z,88.10
2019-02-21T16:39:11.474Z,89.50
2019-02-21T16:41:40.561Z,89.90
2019-02-21T16:44:09.329Z,89.90
2019-02-21T16:46:38.360Z,90.30
2019-02-21T16:49:07.217Z,90.40
2019-02-21T16:51:36.026Z,90.60
2019-02-21T16:54:05.125Z,91.00
2019-02-21T16:56:34.229Z,90.80
2019-02-21T16:59:02.994Z,91.50
2019-02-21T17:01:31.781Z,91.40
2019-02-21T17:04:00.548Z,91.90
2019-02-21T17:06:29.398Z,92.70
2019-02-21T17:08:58.298Z,92.70
2019-02-21T17:11:27.060Z,93.30
2019-02-21T17:13:55.854Z,93.60
2019-02-21T17:16:24.609Z,93.70
2019-02-21T17:18:55.908Z,93.70
2019-02-21T17:21:23.882Z,94.60
2019-02-21T17:23:52.848Z,94.20
2019-02-21T17:26:21.625Z,94.90
2019-02-21T17:28:50.397Z,95.20
2019-02-21T17:31:19.253Z,95.60
2019-02-21T17:33:48.082Z,95.40
2019-02-21T17:36:16.853Z,96.00
2019-02-21T17:38:45.702Z,96.50
2019-02-21T17:41:14.469Z,97.10
2019-02-21T17:43:43.680Z,96.90
2019-02-21T17:46:12.605Z,97.40
2019-02-21T17:48:41.521Z,97.70
2019-02-21T17:51:10.663Z,97.60
2019-02-21T17:53:39.479Z,98.30
2019-02-21T17:56:08.354Z,98.50
2019-02-21T17:58:37.203Z,99.30
2019-02-21T18:01:06.400Z,99.60
2019-02-21T18:03:35.277Z,99.60
2019-02-21T18:06:04.133Z,99.60
2019-02-21T18:08:33.037Z,99.90
2019-02-21T18:11:01.794Z,99.90
2019-02-21T18:13:30.647Z,99.90
2019-02-21T18:15:59.575Z,99.90
2019-02-21T18:18:28.520Z,99.90
2019-02-21T18:20:57.340Z,99.90
2019-02-21T18:23:26.249Z,99.90
2019-02-21T18:25:59.814Z,99.90
2019-02-21T18:28:29.063Z,99.90
2019-02-21T18:30:58.233Z,99.90
2019-02-21T18:33:27.175Z,99.90
2019-02-21T18:35:55.977Z,99.90
2019-02-21T18:38:25.172Z,99.90
2019-02-21T18:40:54.625Z,99.90
2019-02-21T18:43:23.947Z,99.90
2019-02-21T18:45:52.718Z,99.90
2019-02-21T18:48:21.562Z,99.90
2019-02-21T18:50:50.497Z,99.90
2019-02-21T18:53:19.249Z,99.90
2019-02-21T18:55:48.205Z,99.90
2019-02-21T18:58:17.042Z,99.90
2019-02-21T19:00:45.998Z,99.90
2019-02-21T19:03:14.891Z,99.90
2019-02-21T19:05:43.806Z,99.90
2019-02-21T19:08:13.179Z,99.90
2019-02-21T19:10:42.173Z,99.90
2019-02-21T19:13:11.063Z,99.90
2019-02-21T19:15:40.065Z,99.90
2019-02-21T19:18:08.901Z,99.90
2019-02-21T19:20:37.868Z,99.90
2019-02-21T19:23:06.740Z,99.90
2019-02-21T19:25:35.645Z,99.90
2019-02-21T19:28:04.479Z,99.90
2019-02-21T19:30:36.977Z,99.90
2019-02-21T19:33:06.026Z,99.90
2019-02-21T19:35:34.947Z,99.90
2019-02-21T19:38:10.399Z,99.90
2019-02-21T19:40:34.892Z,99.90
2019-02-21T19:43:03.731Z,99.90
2019-02-21T19:45:32.649Z,99.90
2019-02-21T19:48:04.056Z,99.90
2019-02-21T19:50:32.503Z,99.90
2019-02-21T19:53:01.260Z,99.90
2019-02-21T19:55:30.205Z,99.90
2019-02-21T19:57:59.986Z,99.90
2019-02-21T20:00:30.866Z,99.90
2019-02-21T20:02:59.629Z,99.90
2019-02-21T20:05:28.476Z,99.90
2019-02-21T20:08:07.766Z,99.90
2019-02-21T20:10:27.806Z,99.90
2019-02-21T20:12:58.625Z,99.90
2019-02-21T20:15:27.412Z,99.90
2019-02-21T20:17:56.157Z,99.90
2019-02-21T20:20:25.135Z,99.90
2019-02-21T20:22:53.889Z,99.90
2019-02-21T20:25:22.917Z,99.90
2019-02-21T20:27:51.751Z,99.90
2019-02-21T20:30:20.705Z,99.90
2019-02-21T20:32:49.469Z,99.90
2019-02-21T20:35:18.570Z,99.90
2019-02-21T20:37:47.340Z,99.90
2019-02-21T20:40:16.169Z,99.90
2019-02-21T20:42:44.959Z,99.90
2019-02-21T20:45:13.863Z,99.90
2019-02-21T20:47:42.721Z,99.90
2019-02-21T20:50:12.068Z,99.90
2019-02-21T20:52:40.983Z,99.90
2019-02-21T20:55:10.217Z,99.90
2019-02-21T20:57:39.146Z,99.90
2019-02-21T21:00:09.524Z,99.90
2019-02-21T21:02:38.368Z,99.90
2019-02-21T21:05:07.283Z,99.90
2019-02-21T21:07:36.271Z,99.90
2019-02-21T21:10:07.971Z,99.90
2019-02-21T21:12:37.030Z,99.90
2019-02-21T21:15:06.151Z,99.90
2019-02-21T21:17:35.010Z,99.90
2019-02-21T21:20:03.934Z,99.90
2019-02-21T21:22:32.778Z,99.90
2019-02-21T21:25:01.537Z,99.90
2019-02-21T21:27:30.328Z,99.90
2019-02-21T21:29:59.450Z,99.90
2019-02-21T21:32:28.300Z,99.90
2019-02-21T21:34:57.073Z,99.90
2019-02-21T21:37:26.211Z,99.90
2019-02-21T21:39:55.117Z,99.90
2019-02-21T21:42:23.962Z,99.90
2019-02-21T21:44:53.146Z,99.90
2019-02-21T21:47:21.913Z,99.90
2019-02-21T21:49:50.773Z,99.90
2019-02-21T21:52:19.621Z,99.90
2019-02-21T21:54:48.394Z,99.90
2019-02-21T21:57:17.161Z,99.90
2019-02-21T21:59:45.922Z,99.90
2019-02-21T22:02:14.697Z,99.90
2019-02-21T22:04:43.462Z,99.90
2019-02-21T22:07:12.234Z,99.90
2019-02-21T22:09:41.007Z,99.90
2019-02-21T22:12:09.877Z,99.90
2019-02-21T22:14:38.973Z,99.90
2019-02-21T22:17:07.816Z,99.90
2019-02-21T22:19:36.603Z,99.90
2019-02-21T22:22:05.442Z,99.90
2019-02-21T22:24:34.321Z,99.90
2019-02-21T22:27:03.078Z,99.90
2019-02-21T22:29:31.855Z,99.90
2019-02-21T22:32:00.701Z,99.90
2019-02-21T22:34:29.465Z,99.90
2019-02-21T22:36:58.302Z,99.90
2019-02-21T22:39:27.072Z,99.90
2019-02-21T22:41:56.165Z,99.90
2019-02-21T22:44:24.951Z,99.90
2019-02-21T22:46:53.705Z,99.90
2019-02-21T22:49:22.554Z,99.90
2019-02-21T22:51:51.323Z,99.90
2019-02-21T22:54:20.096Z,99.90
2019-02-21T22:56:49.193Z,99.90
2019-02-21T22:59:17.979Z,99.90
2019-02-21T23:01:48.069Z,99.90
2019-02-21T23:04:43.834Z,99.90
2019-02-21T23:08:06.111Z,99.90
2019-02-21T23:10:34.889Z,99.90
2019-02-21T23:13:03.654Z,99.90
2019-02-21T23:15:32.433Z,99.90
2019-02-21T23:18:01.513Z,99.90
2019-02-21T23:20:30.709Z,99.90
2019-02-21T23:22:59.473Z,99.90
2019-02-21T23:25:28.249Z,99.90
2019-02-21T23:27:57.070Z,99.90
2019-02-21T23:30:25.836Z,99.90
2019-02-21T23:32:54.592Z,99.90
2019-02-21T23:35:23.370Z,99.90
2019-02-21T23:37:52.144Z,99.90
2019-02-21T23:40:21.673Z,99.90
2019-02-21T23:42:50.752Z,99.90
2019-02-21T23:45:19.544Z,99.90
2019-02-21T23:47:49.984Z,99.90
2019-02-21T23:50:19.222Z,99.90
2019-02-21T23:52:48.049Z,99.90
2019-02-21T23:55:16.832Z,99.90
2019-02-21T23:57:45.585Z,99.90
